sensor_id;sensor_type;location;lat;lon;timestamp;pressure;altitude;pressure_sealevel;temperature;humidity
44481;BME280;30184;42.018;23.670;2022-09-09T00:01:04;91612.91;;;10.49;96.08
44481;BME280;30184;42.018;23.670;2022-09-09T00:04:09;91643.06;;;11.38;95.15
44481;BME280;30184;42.018;23.670;2022-09-09T00:07:03;91673.66;;;11.26;94.61
44481;BME280;30184;42.018;23.670;2022-09-09T00:09:40;91790.78;;;12.27;94.43
44481;BME280;30184;42.018;23.670;2022-09-09T00:12:17;91781.97;;;11.23;94.54
44481;BME280;30184;42.018;23.670;2022-09-09T00:14:54;91545.47;;;10.64;95.07
44481;BME280;30184;42.018;23.670;2022-09-09T00:17:34;91888.19;;;12.86;95.88
44481;BME280;30184;42.018;23.670;2022-09-09T00:20:12;91666.75;;;11.37;95.82
44481;BME280;30184;42.018;23.670;2022-09-09T00:22:47;92048.66;;;13.22;95.27
44481;BME280;30184;42.018;23.670;2022-09-09T00:25:54;91486.66;;;9.87;94.83
44481;BME280;30184;42.018;23.670;2022-09-09T00:28:27;91941.91;;;12.15;95.56
44481;BME280;30184;42.018;23.670;2022-09-09T00:31:01;91510.97;;;9.58;95.86
44481;BME280;30184;42.018;23.670;2022-09-09T00:33:39;91657.94;;;11.04;96.00
44481;BME280;30184;42.018;23.670;2022-09-09T00:36:13;91519.03;;;10.23;96.54
44481;BME280;30184;42.018;23.670;2022-09-09T00:38:49;91497.94;;;9.36;96.55
44481;BME280;30184;42.018;23.670;2022-09-09T00:41:24;91668.78;;;10.92;95.05
44481;BME280;30184;42.018;23.670;2022-09-09T00:43:57;91649.22;;;10.23;94.98
44481;BME280;30184;42.018;23.670;2022-09-09T00:46:51;92014.66;;;12.85;95.74
44481;BME280;30184;42.018;23.670;2022-09-09T00:49:37;91655.22;;;10.92;95.94
44481;BME280;30184;42.018;23.670;2022-09-09T00:52:23;91756.56;;;11.59;97.02
44481;BME280;30184;42.018;23.670;2022-09-09T00:55:04;91885.41;;;11.78;97.82
44481;BME280;30184;42.018;23.670;2022-09-09T00:57:35;91757.78;;;11.58;97.90
44481;BME280;30184;42.018;23.670;2022-09-09T01:00:22;91559.91;;;9.34;97.72
44481;BME280;30184;42.018;23.670;2022-09-09T01:02:59;91880.50;;;12.43;98.41
44481;BME280;30184;42.018;23.670;2022-09-09T01:05:37;91567.63;;;9.68;98.50
44481;BME280;30184;42.018;23.670;2022-09-09T01:08:19;91639.19;;;9.87;98.88
44481;BME280;30184;42.018;23.670;2022-09-09T01:10:58;92046.31;;;12.66;99.32
44481;BME280;30184;42.018;23.670;2022-09-09T01:13:32;91560.81;;;9.93;97.75
44481;BME280;30184;42.018;23.670;2022-09-09T01:16:09;91596.16;;;9.73;97.09
44481;BME280;30184;42.018;23.670;2022-09-09T01:18:51;91653.00;;;10.87;97.42
44481;BME280;30184;42.018;23.670;2022-09-09T01:21:32;91477.59;;;9.77;97.51
44481;BME280;30184;42.018;23.670;2022-09-09T01:24:19;91599.28;;;9.71;98.23
44481;BME280;30184;42.018;23.670;2022-09-09T01:27:12;91541.78;;;9.80;98.46
44481;BME280;30184;42.018;23.670;2022-09-09T01:29:43;91726.34;;;10.38;98.45
44481;BME280;30184;42.018;23.670;2022-09-09T01:32:41;91935.31;;;12.70;97.51
44481;BME280;30184;42.018;23.670;2022-09-09T01:35:18;91656.84;;;10.44;97.09
44481;BME280;30184;42.018;23.670;2022-09-09T01:37:51;91752.72;;;11.44;96.94
44481;BME280;30184;42.018;23.670;2022-09-09T01:40:21;91895.53;;;12.06;97.42
44481;BME280;30184;42.018;23.670;2022-09-09T01:42:52;91759.59;;;11.48;97.91
44481;BME280;30184;42.018;23.670;2022-09-09T01:45:22;91626.34;;;10.24;98.36
44481;BME280;30184;42.018;23.670;2022-09-09T01:47:53;91759.25;;;11.46;98.81
44481;BME280;30184;42.018;23.670;2022-09-09T01:50:38;91612.75;;;9.75;98.38
44481;BME280;30184;42.018;23.670;2022-09-09T01:53:09;91685.22;;;10.23;98.29
44481;BME280;30184;42.018;23.670;2022-09-09T01:55:42;91557.97;;;9.51;98.15
44481;BME280;30184;42.018;23.670;2022-09-09T01:58:29;91686.91;;;10.95;98.67
44481;BME280;30184;42.018;23.670;2022-09-09T02:01:08;91436.88;;;9.35;98.81
44481;BME280;30184;42.018;23.670;2022-09-09T02:03:45;91900.94;;;12.22;99.24
44481;BME280;30184;42.018;23.670;2022-09-09T02:06:26;91483.88;;;9.58;98.79
44481;BME280;30184;42.018;23.670;2022-09-09T02:09:05;91637.38;;;10.62;98.47
44481;BME280;30184;42.018;23.670;2022-09-09T02:11:36;91672.25;;;10.47;98.00
44481;BME280;30184;42.018;23.670;2022-09-09T02:14:20;92074.66;;;12.53;97.61
44481;BME280;30184;42.018;23.670;2022-09-09T02:16:55;91990.28;;;12.53;97.36
44481;BME280;30184;42.018;23.670;2022-09-09T02:19:40;92035.47;;;12.50;96.75
44481;BME280;30184;42.018;23.670;2022-09-09T02:22:32;91868.72;;;11.31;96.79
44481;BME280;30184;42.018;23.670;2022-09-09T02:25:08;91757.78;;;11.29;97.49
44481;BME280;30184;42.018;23.670;2022-09-09T02:27:40;91748.53;;;11.27;98.09
44481;BME280;30184;42.018;23.670;2022-09-09T02:30:14;91610.91;;;9.36;98.05
44481;BME280;30184;42.018;23.670;2022-09-09T02:32:52;91455.91;;;9.16;98.19
44481;BME280;30184;42.018;23.670;2022-09-09T02:35:46;91589.59;;;9.38;98.57
44481;BME280;30184;42.018;23.670;2022-09-09T02:38:21;91669.25;;;9.93;98.57
44481;BME280;30184;42.018;23.670;2022-09-09T02:41:00;92036.09;;;12.42;98.56
44481;BME280;30184;42.018;23.670;2022-09-09T02:43:31;91655.88;;;9.86;98.36
44481;BME280;30184;42.018;23.670;2022-09-09T02:46:22;91773.47;;;10.44;98.69
44481;BME280;30184;42.018;23.670;2022-09-09T02:48:59;91566.09;;;9.35;98.42
44481;BME280;30184;42.018;23.670;2022-09-09T02:51:40;91714.13;;;11.07;98.86
44481;BME280;30184;42.018;23.670;2022-09-09T02:54:20;91458.59;;;9.32;98.31
44481;BME280;30184;42.018;23.670;2022-09-09T02:56:53;91706.00;;;10.46;98.06
44481;BME280;30184;42.018;23.670;2022-09-09T02:59:33;91749.81;;;11.22;97.94
44481;BME280;30184;42.018;23.670;2022-09-09T03:02:04;91668.34;;;10.48;97.54
44481;BME280;30184;42.018;23.670;2022-09-09T03:04:34;91901.03;;;12.19;98.05
44481;BME280;30184;42.018;23.670;2022-09-09T03:07:04;91852.91;;;11.58;98.12
44481;BME280;30184;42.018;23.670;2022-09-09T03:09:33;91639.28;;;10.32;98.11
44481;BME280;30184;42.018;23.670;2022-09-09T03:12:02;91660.16;;;10.19;98.11
44481;BME280;30184;42.018;23.670;2022-09-09T03:14:34;91903.78;;;12.31;98.67
44481;BME280;30184;42.018;23.670;2022-09-09T03:17:05;91959.81;;;12.29;98.77
44481;BME280;30184;42.018;23.670;2022-09-09T03:19:38;91961.78;;;12.28;98.81
44481;BME280;30184;42.018;23.670;2022-09-09T03:22:10;91780.84;;;11.08;98.73
44481;BME280;30184;42.018;23.670;2022-09-09T03:24:42;91579.63;;;9.67;98.87
44481;BME280;30184;42.018;23.670;2022-09-09T03:27:11;91849.66;;;11.18;99.00
44481;BME280;30184;42.018;23.670;2022-09-09T03:29:41;91774.38;;;11.18;99.10
44481;BME280;30184;42.018;23.670;2022-09-09T03:32:16;91953.47;;;11.42;98.71
44481;BME280;30184;42.018;23.670;2022-09-09T03:34:45;91629.19;;;10.33;99.00
44481;BME280;30184;42.018;23.670;2022-09-09T03:37:15;92017.59;;;12.20;98.83
44481;BME280;30184;42.018;23.670;2022-09-09T03:39:45;91800.59;;;11.09;97.99
44481;BME280;30184;42.018;23.670;2022-09-09T03:42:16;91923.63;;;12.16;98.18
44481;BME280;30184;42.018;23.670;2022-09-09T03:44:50;91444.56;;;9.05;97.96
44481;BME280;30184;42.018;23.670;2022-09-09T03:47:25;91945.09;;;12.14;98.42
44481;BME280;30184;42.018;23.670;2022-09-09T03:50:00;91909.72;;;12.14;98.83
44481;BME280;30184;42.018;23.670;2022-09-09T03:52:34;91665.81;;;10.08;98.52
44481;BME280;30184;42.018;23.670;2022-09-09T03:55:08;91717.31;;;10.90;98.79
44481;BME280;30184;42.018;23.670;2022-09-09T03:57:38;91620.91;;;9.03;97.67
44481;BME280;30184;42.018;23.670;2022-09-09T04:00:09;91870.00;;;11.87;97.96
44481;BME280;30184;42.018;23.670;2022-09-09T04:02:52;91939.81;;;12.07;97.74
44481;BME280;30184;42.018;23.670;2022-09-09T04:05:23;91984.53;;;12.06;98.10
44481;BME280;30184;42.018;23.670;2022-09-09T04:07:52;91626.75;;;10.06;98.22
44481;BME280;30184;42.018;23.670;2022-09-09T04:10:22;91598.38;;;9.78;98.33
44481;BME280;30184;42.018;23.670;2022-09-09T04:12:52;91672.25;;;10.31;98.58
44481;BME280;30184;42.018;23.670;2022-09-09T04:15:22;91595.38;;;9.56;99.01
44481;BME280;30184;42.018;23.670;2022-09-09T04:17:53;91461.72;;;8.98;98.93
44481;BME280;30184;42.018;23.670;2022-09-09T04:20:23;91571.47;;;8.99;98.33
44481;BME280;30184;42.018;23.670;2022-09-09T04:22:53;91748.56;;;10.13;97.44
44481;BME280;30184;42.018;23.670;2022-09-09T04:25:23;91529.50;;;8.91;97.27
44481;BME280;30184;42.018;23.670;2022-09-09T04:27:53;91725.06;;;10.75;98.01
44481;BME280;30184;42.018;23.670;2022-09-09T04:30:24;91429.91;;;8.86;97.89
44481;BME280;30184;42.018;23.670;2022-09-09T04:32:56;91814.72;;;10.71;98.05
44481;BME280;30184;42.018;23.670;2022-09-09T04:35:26;91930.72;;;12.13;98.13
44481;BME280;30184;42.018;23.670;2022-09-09T04:37:56;91890.22;;;11.25;97.55
44481;BME280;30184;42.018;23.670;2022-09-09T04:40:31;91738.31;;;10.04;97.76
44481;BME280;30184;42.018;23.670;2022-09-09T04:43:02;91915.19;;;12.26;98.05
44481;BME280;30184;42.018;23.670;2022-09-09T04:45:32;91995.53;;;12.31;98.24
44481;BME280;30184;42.018;23.670;2022-09-09T04:48:03;91715.03;;;10.07;98.37
44481;BME280;30184;42.018;23.670;2022-09-09T04:50:33;92028.78;;;12.39;98.84
44481;BME280;30184;42.018;23.670;2022-09-09T04:53:02;91918.59;;;12.43;98.66
44481;BME280;30184;42.018;23.670;2022-09-09T04:55:34;91867.41;;;11.68;98.20
44481;BME280;30184;42.018;23.670;2022-09-09T04:58:04;91922.34;;;12.49;97.70
44481;BME280;30184;42.018;23.670;2022-09-09T05:00:35;91767.13;;;10.51;97.34
44481;BME280;30184;42.018;23.670;2022-09-09T05:03:08;92031.44;;;12.55;97.27
44481;BME280;30184;42.018;23.670;2022-09-09T05:05:37;91736.41;;;10.70;96.90
44481;BME280;30184;42.018;23.670;2022-09-09T05:08:08;91484.88;;;8.99;96.88
44481;BME280;30184;42.018;23.670;2022-09-09T05:10:38;91751.91;;;11.02;97.37
44481;BME280;30184;42.018;23.670;2022-09-09T05:13:09;91924.53;;;12.67;98.14
44481;BME280;30184;42.018;23.670;2022-09-09T05:15:39;92058.31;;;12.69;98.52
44481;BME280;30184;42.018;23.670;2022-09-09T05:18:09;91627.16;;;10.82;98.40
44481;BME280;30184;42.018;23.670;2022-09-09T05:20:39;91536.75;;;10.27;98.58
44481;BME280;30184;42.018;23.670;2022-09-09T05:23:31;91594.06;;;10.58;98.12
44481;BME280;30184;42.018;23.670;2022-09-09T05:26:02;91457.47;;;10.07;97.61
44481;BME280;30184;42.018;23.670;2022-09-09T05:28:34;91793.88;;;12.42;97.57
44481;BME280;30184;42.018;23.670;2022-09-09T05:31:05;91878.69;;;12.11;96.40
44481;BME280;30184;42.018;23.670;2022-09-09T05:33:38;91613.94;;;11.51;95.71
44481;BME280;30184;42.018;23.670;2022-09-09T05:36:10;91515.69;;;11.02;94.91
44481;BME280;30184;42.018;23.670;2022-09-09T05:38:42;91706.06;;;11.74;94.96
44481;BME280;30184;42.018;23.670;2022-09-09T05:41:11;91866.06;;;12.97;94.61
44481;BME280;30184;42.018;23.670;2022-09-09T05:43:44;91700.63;;;12.76;93.95
44481;BME280;30184;42.018;23.670;2022-09-09T05:46:19;91925.75;;;14.02;93.74
44481;BME280;30184;42.018;23.670;2022-09-09T05:48:54;91510.34;;;11.74;92.96
44481;BME280;30184;42.018;23.670;2022-09-09T05:51:31;91504.81;;;11.02;92.36
44481;BME280;30184;42.018;23.670;2022-09-09T05:54:08;91721.81;;;13.62;91.84
44481;BME280;30184;42.018;23.670;2022-09-09T05:56:42;91927.72;;;14.79;90.79
44481;BME280;30184;42.018;23.670;2022-09-09T05:59:13;91906.50;;;14.92;90.53
44481;BME280;30184;42.018;23.670;2022-09-09T06:01:43;91873.63;;;15.05;89.32
44481;BME280;30184;42.018;23.670;2022-09-09T06:04:40;91576.94;;;13.07;89.61
44481;BME280;30184;42.018;23.670;2022-09-09T06:07:11;91603.22;;;13.45;88.52
44481;BME280;30184;42.018;23.670;2022-09-09T06:09:42;91644.34;;;13.91;87.97
44481;BME280;30184;42.018;23.670;2022-09-09T06:12:12;91829.75;;;14.69;88.05
44481;BME280;30184;42.018;23.670;2022-09-09T06:14:42;91886.31;;;15.79;87.16
44481;BME280;30184;42.018;23.670;2022-09-09T06:17:13;91779.34;;;15.01;87.04
44481;BME280;30184;42.018;23.670;2022-09-09T06:19:44;91401.53;;;12.74;86.17
44481;BME280;30184;42.018;23.670;2022-09-09T06:22:14;91581.19;;;14.01;86.05
44481;BME280;30184;42.018;23.670;2022-09-09T06:24:43;91684.88;;;14.32;85.75
44481;BME280;30184;42.018;23.670;2022-09-09T06:27:12;91528.94;;;14.21;85.09
44481;BME280;30184;42.018;23.670;2022-09-09T06:29:42;91725.78;;;15.76;84.60
44481;BME280;30184;42.018;23.670;2022-09-09T06:32:12;91458.44;;;14.01;84.68
44481;BME280;30184;42.018;23.670;2022-09-09T06:34:41;92029.09;;;17.09;84.06
44481;BME280;30184;42.018;23.670;2022-09-09T06:37:14;91956.25;;;17.17;83.63
44481;BME280;30184;42.018;23.670;2022-09-09T06:39:48;91444.03;;;14.55;80.31
44481;BME280;30184;42.018;23.670;2022-09-09T06:42:18;91793.22;;;16.94;78.75
44481;BME280;30184;42.018;23.670;2022-09-09T06:45:06;91868.47;;;17.59;77.97
44481;BME280;30184;42.018;23.670;2022-09-09T06:47:44;91434.94;;;14.68;76.22
44481;BME280;30184;42.018;23.670;2022-09-09T06:50:14;91685.16;;;16.02;75.01
44481;BME280;30184;42.018;23.670;2022-09-09T06:52:47;91582.69;;;16.03;74.53
44481;BME280;30184;42.018;23.670;2022-09-09T06:55:17;91691.06;;;16.10;74.28
44481;BME280;30184;42.018;23.670;2022-09-09T06:57:48;91853.25;;;18.06;74.12
44481;BME280;30184;42.018;23.670;2022-09-09T07:00:22;91868.09;;;17.75;73.58
44481;BME280;30184;42.018;23.670;2022-09-09T07:02:52;91805.91;;;17.72;73.52
44481;BME280;30184;42.018;23.670;2022-09-09T07:05:23;91780.13;;;17.46;73.48
44481;BME280;30184;42.018;23.670;2022-09-09T07:07:55;91807.25;;;17.20;74.09
44481;BME280;30184;42.018;23.670;2022-09-09T07:10:25;91790.13;;;17.58;74.62
44481;BME280;30184;42.018;23.670;2022-09-09T07:12:55;91524.13;;;16.00;74.22
44481;BME280;30184;42.018;23.670;2022-09-09T07:15:25;91521.53;;;16.54;73.55
44481;BME280;30184;42.018;23.670;2022-09-09T07:17:55;91523.00;;;16.64;73.53
44481;BME280;30184;42.018;23.670;2022-09-09T07:20:25;91685.47;;;17.50;73.98
44481;BME280;30184;42.018;23.670;2022-09-09T07:22:56;91946.31;;;19.34;73.57
44481;BME280;30184;42.018;23.670;2022-09-09T07:25:26;91579.72;;;17.64;71.94
44481;BME280;30184;42.018;23.670;2022-09-09T07:27:58;91647.09;;;17.95;72.07
44481;BME280;30184;42.018;23.670;2022-09-09T07:30:27;91915.44;;;19.74;71.94
44481;BME280;30184;42.018;23.670;2022-09-09T07:32:58;91712.72;;;18.66;71.17
44481;BME280;30184;42.018;23.670;2022-09-09T07:35:28;91584.31;;;18.02;71.36
44481;BME280;30184;42.018;23.670;2022-09-09T07:38:00;91675.13;;;18.28;71.01
44481;BME280;30184;42.018;23.670;2022-09-09T07:40:31;91555.75;;;17.65;70.63
44481;BME280;30184;42.018;23.670;2022-09-09T07:43:01;91928.59;;;20.20;69.96
44481;BME280;30184;42.018;23.670;2022-09-09T07:45:31;91588.81;;;18.35;70.05
44481;BME280;30184;42.018;23.670;2022-09-09T07:48:03;91603.19;;;18.79;68.97
44481;BME280;30184;42.018;23.670;2022-09-09T07:50:33;91883.47;;;20.58;70.04
44481;BME280;30184;42.018;23.670;2022-09-09T07:53:05;91915.75;;;20.77;69.78
44481;BME280;30184;42.018;23.670;2022-09-09T07:55:39;91908.66;;;20.91;69.31
44481;BME280;30184;42.018;23.670;2022-09-09T07:58:08;91896.81;;;21.11;68.64
44481;BME280;30184;42.018;23.670;2022-09-09T08:01:34;91635.81;;;19.27;67.74
44481;BME280;30184;42.018;23.670;2022-09-09T08:04:10;91490.69;;;18.76;67.31
44481;BME280;30184;42.018;23.670;2022-09-09T08:06:46;91833.19;;;21.57;67.83
44481;BME280;30184;42.018;23.670;2022-09-09T08:09:20;91641.66;;;20.64;67.29
44481;BME280;30184;42.018;23.670;2022-09-09T08:11:49;91850.66;;;21.80;65.92
44481;BME280;30184;42.018;23.670;2022-09-09T08:14:19;91700.78;;;20.94;67.29
44481;BME280;30184;42.018;23.670;2022-09-09T08:16:49;91652.41;;;20.99;66.22
44481;BME280;30184;42.018;23.670;2022-09-09T08:19:23;91702.81;;;20.99;64.97
44481;BME280;30184;42.018;23.670;2022-09-09T08:21:53;91831.53;;;22.19;63.93
44481;BME280;30184;42.018;23.670;2022-09-09T08:24:24;91662.00;;;20.40;61.94
44481;BME280;30184;42.018;23.670;2022-09-09T08:26:53;91397.34;;;19.81;61.79
44481;BME280;30184;42.018;23.670;2022-09-09T08:29:24;91395.88;;;19.86;60.92
44481;BME280;30184;42.018;23.670;2022-09-09T08:31:57;91383.88;;;19.89;61.45
44481;BME280;30184;42.018;23.670;2022-09-09T08:34:28;91904.88;;;22.68;62.82
44481;BME280;30184;42.018;23.670;2022-09-09T08:37:03;91700.63;;;22.27;62.10
44481;BME280;30184;42.018;23.670;2022-09-09T08:39:39;91750.00;;;22.79;61.45
44481;BME280;30184;42.018;23.670;2022-09-09T08:42:26;91827.00;;;23.08;59.87
44481;BME280;30184;42.018;23.670;2022-09-09T08:45:12;91826.25;;;23.25;59.38
44481;BME280;30184;42.018;23.670;2022-09-09T08:47:53;91563.13;;;21.83;59.29
44481;BME280;30184;42.018;23.670;2022-09-09T08:50:28;91837.59;;;23.49;58.41
44481;BME280;30184;42.018;23.670;2022-09-09T08:53:08;91592.31;;;22.51;58.04
44481;BME280;30184;42.018;23.670;2022-09-09T08:55:55;91405.94;;;21.18;58.76
44481;BME280;30184;42.018;23.670;2022-09-09T08:58:44;91347.66;;;20.89;60.19
44481;BME280;30184;42.018;23.670;2022-09-09T09:04:26;91781.59;;;23.95;57.33
44481;BME280;30184;42.018;23.670;2022-09-09T09:07:08;91604.84;;;22.63;57.57
44481;BME280;30184;42.018;23.670;2022-09-09T09:09:52;91779.75;;;24.26;58.98
44481;BME280;30184;42.018;23.670;2022-09-09T09:12:40;91852.28;;;24.41;55.98
44481;BME280;30184;42.018;23.670;2022-09-09T09:15:17;91736.28;;;24.39;54.71
44481;BME280;30184;42.018;23.670;2022-09-09T09:17:49;91624.94;;;23.03;54.89
44481;BME280;30184;42.018;23.670;2022-09-09T09:20:25;91738.06;;;24.42;55.07
44481;BME280;30184;42.018;23.670;2022-09-09T09:36:58;91793.28;;;24.93;54.35
44481;BME280;30184;42.018;23.670;2022-09-09T09:39:33;91600.91;;;23.44;54.95
44481;BME280;30184;42.018;23.670;2022-09-09T09:42:25;91430.41;;;23.08;55.37
44481;BME280;30184;42.018;23.670;2022-09-09T09:45:07;91435.09;;;22.83;55.11
44481;BME280;30184;42.018;23.670;2022-09-09T09:47:38;91524.19;;;23.80;54.73
44481;BME280;30184;42.018;23.670;2022-09-09T09:50:19;91755.25;;;25.12;54.09
44481;BME280;30184;42.018;23.670;2022-09-09T09:53:00;91551.81;;;23.92;53.64
44481;BME280;30184;42.018;23.670;2022-09-09T10:07:22;91715.41;;;25.34;54.01
44481;BME280;30184;42.018;23.670;2022-09-09T10:09:54;91693.50;;;25.30;54.43
44481;BME280;30184;42.018;23.670;2022-09-09T10:12:45;91447.25;;;23.57;52.91
44481;BME280;30184;42.018;23.670;2022-09-09T10:15:38;91608.53;;;24.62;52.33
44481;BME280;30184;42.018;23.670;2022-09-09T10:30:06;91563.47;;;25.04;49.69
44481;BME280;30184;42.018;23.670;2022-09-09T10:32:46;91827.28;;;26.18;50.61
44481;BME280;30184;42.018;23.670;2022-09-09T10:35:25;91555.78;;;25.16;51.69
44481;BME280;30184;42.018;23.670;2022-09-09T10:38:12;91594.84;;;24.99;53.03
44481;BME280;30184;42.018;23.670;2022-09-09T10:40:43;91686.06;;;25.87;51.49
44481;BME280;30184;42.018;23.670;2022-09-09T11:04:53;91692.69;;;25.84;51.66
44481;BME280;30184;42.018;23.670;2022-09-09T11:07:29;91666.19;;;26.01;52.64
44481;BME280;30184;42.018;23.670;2022-09-09T11:10:06;91458.97;;;24.04;51.87
44481;BME280;30184;42.018;23.670;2022-09-09T11:12:37;91425.34;;;24.18;51.95
44481;BME280;30184;42.018;23.670;2022-09-09T11:15:17;91547.72;;;25.12;50.01
44481;BME280;30184;42.018;23.670;2022-09-09T11:17:53;91418.31;;;24.42;48.91
44481;BME280;30184;42.018;23.670;2022-09-09T11:20:26;91587.06;;;25.84;48.91
44481;BME280;30184;42.018;23.670;2022-09-09T11:22:59;91521.56;;;25.26;50.21
44481;BME280;30184;42.018;23.670;2022-09-09T11:25:36;91442.44;;;24.96;50.55
44481;BME280;30184;42.018;23.670;2022-09-09T11:28:21;91658.25;;;26.62;50.71
44481;BME280;30184;42.018;23.670;2022-09-09T11:31:07;91641.81;;;26.45;50.22
44481;BME280;30184;42.018;23.670;2022-09-09T11:33:58;91500.00;;;25.14;50.09
44481;BME280;30184;42.018;23.670;2022-09-09T11:40:28;91536.84;;;25.57;49.21
44481;BME280;30184;42.018;23.670;2022-09-09T11:43:04;91582.59;;;26.31;47.61
44481;BME280;30184;42.018;23.670;2022-09-09T11:45:35;91432.16;;;25.66;48.41
44481;BME280;30184;42.018;23.670;2022-09-09T11:48:05;91443.56;;;25.81;48.17
44481;BME280;30184;42.018;23.670;2022-09-09T11:50:36;91451.69;;;25.60;47.12
44481;BME280;30184;42.018;23.670;2022-09-09T11:53:22;91621.06;;;26.97;46.46
44481;BME280;30184;42.018;23.670;2022-09-09T11:56:05;91338.66;;;25.49;44.93
44481;BME280;30184;42.018;23.670;2022-09-09T11:58:41;91643.97;;;27.03;45.26
44481;BME280;30184;42.018;23.670;2022-09-09T12:01:15;91662.50;;;27.72;45.04
44481;BME280;30184;42.018;23.670;2022-09-09T12:03:46;91608.97;;;26.75;45.73
44481;BME280;30184;42.018;23.670;2022-09-09T12:06:48;91654.22;;;27.40;45.86
44481;BME280;30184;42.018;23.670;2022-09-09T12:09:29;91465.94;;;25.70;46.16
44481;BME280;30184;42.018;23.670;2022-09-09T12:12:20;91654.63;;;27.31;47.47
44481;BME280;30184;42.018;23.670;2022-09-09T12:15:01;91681.28;;;27.26;46.49
44481;BME280;30184;42.018;23.670;2022-09-09T12:17:41;91539.91;;;26.10;47.01
44481;BME280;30184;42.018;23.670;2022-09-09T12:20:13;91623.13;;;26.78;47.55
44481;BME280;30184;42.018;23.670;2022-09-09T12:23:05;91717.28;;;27.11;46.87
44481;BME280;30184;42.018;23.670;2022-09-09T12:25:50;91370.94;;;25.02;47.13
44481;BME280;30184;42.018;23.670;2022-09-09T12:28:24;91423.00;;;25.14;47.45
44481;BME280;30184;42.018;23.670;2022-09-09T12:31:00;91285.69;;;24.22;47.79
44481;BME280;30184;42.018;23.670;2022-09-09T12:33:36;91642.78;;;26.66;47.38
44481;BME280;30184;42.018;23.670;2022-09-09T12:36:11;91444.72;;;24.48;47.95
44481;BME280;30184;42.018;23.670;2022-09-09T12:38:43;91587.06;;;26.02;48.80
44481;BME280;30184;42.018;23.670;2022-09-09T12:41:22;91663.69;;;26.54;47.82
44481;BME280;30184;42.018;23.670;2022-09-09T12:44:03;91700.78;;;26.44;50.17
44481;BME280;30184;42.018;23.670;2022-09-09T12:46:36;91665.59;;;26.46;47.94
44481;BME280;30184;42.018;23.670;2022-09-09T12:49:26;91453.63;;;24.84;49.52
44481;BME280;30184;42.018;23.670;2022-09-09T12:51:56;91609.81;;;25.82;49.51
44481;BME280;30184;42.018;23.670;2022-09-09T12:54:26;91571.66;;;25.83;47.66
44481;BME280;30184;42.018;23.670;2022-09-09T12:56:57;91620.41;;;26.40;47.51
44481;BME280;30184;42.018;23.670;2022-09-09T12:59:35;91629.13;;;25.75;46.94
44481;BME280;30184;42.018;23.670;2022-09-09T13:02:16;91593.13;;;26.38;48.05
44481;BME280;30184;42.018;23.670;2022-09-09T13:04:46;91363.31;;;24.46;48.66
44481;BME280;30184;42.018;23.670;2022-09-09T13:07:16;91625.31;;;26.66;47.42
44481;BME280;30184;42.018;23.670;2022-09-09T13:09:47;91583.00;;;26.54;47.09
44481;BME280;30184;42.018;23.670;2022-09-09T13:12:19;91479.78;;;25.38;47.54
44481;BME280;30184;42.018;23.670;2022-09-09T13:14:52;91570.53;;;25.91;48.21
44481;BME280;30184;42.018;23.670;2022-09-09T13:17:26;91551.81;;;26.43;48.92
44481;BME280;30184;42.018;23.670;2022-09-09T13:19:57;91459.19;;;25.27;51.73
44481;BME280;30184;42.018;23.670;2022-09-09T13:22:30;91520.88;;;26.14;48.91
44481;BME280;30184;42.018;23.670;2022-09-09T13:25:04;91569.13;;;26.67;47.87
44481;BME280;30184;42.018;23.670;2022-09-09T13:27:36;91461.91;;;25.71;47.68
44481;BME280;30184;42.018;23.670;2022-09-09T13:30:33;91600.09;;;26.90;48.94
44481;BME280;30184;42.018;23.670;2022-09-09T13:33:06;91399.13;;;25.43;47.21
44481;BME280;30184;42.018;23.670;2022-09-09T13:35:49;91597.56;;;26.92;46.66
44481;BME280;30184;42.018;23.670;2022-09-09T13:38:19;91517.13;;;26.30;46.74
44481;BME280;30184;42.018;23.670;2022-09-09T13:40:54;91517.59;;;25.97;46.89
44481;BME280;30184;42.018;23.670;2022-09-09T13:43:27;91588.28;;;26.71;49.83
44481;BME280;30184;42.018;23.670;2022-09-09T13:45:58;91587.09;;;26.66;49.40
44481;BME280;30184;42.018;23.670;2022-09-09T13:48:27;91626.50;;;26.70;48.93
44481;BME280;30184;42.018;23.670;2022-09-09T13:50:59;91583.78;;;26.68;48.59
44481;BME280;30184;42.018;23.670;2022-09-09T13:53:29;91319.47;;;25.01;47.35
44481;BME280;30184;42.018;23.670;2022-09-09T13:55:58;91594.69;;;26.98;47.29
44481;BME280;30184;42.018;23.670;2022-09-09T13:58:30;91430.09;;;25.85;46.24
44481;BME280;30184;42.018;23.670;2022-09-09T14:00:59;91590.84;;;27.01;45.50
44481;BME280;30184;42.018;23.670;2022-09-09T14:03:28;91566.78;;;26.40;45.29
44481;BME280;30184;42.018;23.670;2022-09-09T14:06:11;91597.09;;;26.88;47.24
44481;BME280;30184;42.018;23.670;2022-09-09T14:08:41;91567.97;;;26.44;47.68
44481;BME280;30184;42.018;23.670;2022-09-09T14:11:12;91354.84;;;24.76;46.82
44481;BME280;30184;42.018;23.670;2022-09-09T14:13:46;91576.78;;;26.48;47.74
44481;BME280;30184;42.018;23.670;2022-09-09T14:16:19;91598.13;;;26.59;48.71
44481;BME280;30184;42.018;23.670;2022-09-09T14:18:49;91519.56;;;26.02;48.29
44481;BME280;30184;42.018;23.670;2022-09-09T14:21:18;91456.66;;;25.48;48.11
44481;BME280;30184;42.018;23.670;2022-09-09T14:23:47;91425.34;;;24.92;49.83
44481;BME280;30184;42.018;23.670;2022-09-09T14:26:17;91442.47;;;24.71;51.11
44481;BME280;30184;42.018;23.670;2022-09-09T14:28:50;91599.09;;;26.24;49.44
44481;BME280;30184;42.018;23.670;2022-09-09T14:31:22;91382.38;;;24.55;49.59
44481;BME280;30184;42.018;23.670;2022-09-09T14:33:51;91589.69;;;25.95;49.65
44481;BME280;30184;42.018;23.670;2022-09-09T14:36:21;91414.34;;;24.37;51.02
44481;BME280;30184;42.018;23.670;2022-09-09T14:38:50;91604.25;;;26.01;51.00